sensor_id;sensor_type;location;lat;lon;timestamp;pressure;altitude;pressure_sealevel;temperature;humidity
69848;BME280;57143;55.940;37.496;2023-04-28T00:01:23;97258.41;;;12.49;100.00
69848;BME280;57143;55.940;37.496;2023-04-28T00:03:50;97249.03;;;12.36;100.00
69848;BME280;57143;55.940;37.496;2023-04-28T00:06:17;97242.31;;;12.29;100.00
69848;BME280;57143;55.940;37.496;2023-04-28T00:08:45;97243.94;;;12.30;100.00
69848;BME280;57143;55.940;37.496;2023-04-28T00:11:13;97248.03;;;12.27;100.00
69848;BME280;57143;55.940;37.496;2023-04-28T00:13:41;97235.44;;;12.13;100.00
69848;BME280;57143;55.940;37.496;2023-04-28T00:16:08;97241.81;;;11.98;100.00
69848;BME280;57143;55.940;37.496;2023-04-28T00:18:35;97231.94;;;11.84;100.00
69848;BME280;57143;55.940;37.496;2023-04-28T00:21:03;97224.56;;;11.84;100.00
69848;BME280;57143;55.940;37.496;2023-04-28T00:23:31;97211.59;;;11.81;100.00
69848;BME280;57143;55.940;37.496;2023-04-28T00:25:58;97201.84;;;11.80;100.00
69848;BME280;57143;55.940;37.496;2023-04-28T00:28:26;97199.97;;;11.76;100.00
69848;BME280;57143;55.940;37.496;2023-04-28T00:30:53;97182.69;;;11.67;100.00
69848;BME280;57143;55.940;37.496;2023-04-28T00:33:21;97151.25;;;11.60;100.00
69848;BME280;57143;55.940;37.496;2023-04-28T00:35:48;97157.66;;;11.75;100.00
69848;BME280;57143;55.940;37.496;2023-04-28T00:38:15;97140.09;;;11.62;100.00
69848;BME280;57143;55.940;37.496;2023-04-28T00:40:42;97151.94;;;11.76;100.00
69848;BME280;57143;55.940;37.496;2023-04-28T00:43:10;97117.06;;;11.65;100.00
69848;BME280;57143;55.940;37.496;2023-04-28T00:45:38;97157.25;;;11.86;100.00
69848;BME280;57143;55.940;37.496;2023-04-28T00:48:06;97158.97;;;11.77;100.00
69848;BME280;57143;55.940;37.496;2023-04-28T00:50:33;97152.81;;;11.72;100.00
69848;BME280;57143;55.940;37.496;2023-04-28T00:53:00;97138.22;;;11.62;100.00
69848;BME280;57143;55.940;37.496;2023-04-28T00:55:30;97143.91;;;11.61;100.00
69848;BME280;57143;55.940;37.496;2023-04-28T00:57:59;97130.34;;;11.61;100.00
69848;BME280;57143;55.940;37.496;2023-04-28T01:00:26;97128.41;;;11.67;100.00
69848;BME280;57143;55.940;37.496;2023-04-28T01:02:56;97117.28;;;11.68;100.00
69848;BME280;57143;55.940;37.496;2023-04-28T01:05:24;97133.22;;;11.75;100.00
69848;BME280;57143;55.940;37.496;2023-04-28T01:07:51;97117.56;;;11.61;100.00
69848;BME280;57143;55.940;37.496;2023-04-28T01:10:19;97118.38;;;11.67;100.00
69848;BME280;57143;55.940;37.496;2023-04-28T01:12:46;97117.28;;;11.68;100.00
69848;BME280;57143;55.940;37.496;2023-04-28T01:15:15;97114.81;;;11.72;100.00
69848;BME280;57143;55.940;37.496;2023-04-28T01:17:44;97122.19;;;11.66;100.00
69848;BME280;57143;55.940;37.496;2023-04-28T01:20:13;97121.63;;;11.69;100.00
69848;BME280;57143;55.940;37.496;2023-04-28T01:22:40;97122.97;;;11.72;100.00
69848;BME280;57143;55.940;37.496;2023-04-28T01:25:09;97121.56;;;11.74;100.00
69848;BME280;57143;55.940;37.496;2023-04-28T01:27:36;97112.09;;;11.72;100.00
69848;BME280;57143;55.940;37.496;2023-04-28T01:30:04;97112.88;;;11.72;100.00
69848;BME280;57143;55.940;37.496;2023-04-28T01:32:32;97114.00;;;11.71;100.00
69848;BME280;57143;55.940;37.496;2023-04-28T01:34:59;97089.97;;;11.54;100.00
69848;BME280;57143;55.940;37.496;2023-04-28T01:37:26;97093.84;;;11.77;100.00
69848;BME280;57143;55.940;37.496;2023-04-28T01:39:53;97083.44;;;11.84;100.00
69848;BME280;57143;55.940;37.496;2023-04-28T01:42:22;97090.97;;;11.92;100.00
69848;BME280;57143;55.940;37.496;2023-04-28T01:44:49;97087.09;;;11.98;100.00
69848;BME280;57143;55.940;37.496;2023-04-28T01:47:16;97086.66;;;12.10;100.00
69848;BME280;57143;55.940;37.496;2023-04-28T01:49:44;97092.69;;;12.07;100.00
69848;BME280;57143;55.940;37.496;2023-04-28T01:52:12;97108.06;;;12.16;100.00
69848;BME280;57143;55.940;37.496;2023-04-28T01:54:39;97104.22;;;12.17;100.00
69848;BME280;57143;55.940;37.496;2023-04-28T01:57:07;97119.16;;;12.20;100.00
69848;BME280;57143;55.940;37.496;2023-04-28T01:59:35;97118.84;;;12.21;100.00
69848;BME280;57143;55.940;37.496;2023-04-28T02:02:02;97107.25;;;12.16;100.00
69848;BME280;57143;55.940;37.496;2023-04-28T02:04:29;97115.78;;;12.28;100.00
69848;BME280;57143;55.940;37.496;2023-04-28T02:06:57;97131.41;;;12.36;100.00
69848;BME280;57143;55.940;37.496;2023-04-28T02:09:24;97135.16;;;12.40;100.00
69848;BME280;57143;55.940;37.496;2023-04-28T02:11:51;97130.50;;;12.45;100.00
69848;BME280;57143;55.940;37.496;2023-04-28T02:14:18;97137.53;;;12.46;100.00
69848;BME280;57143;55.940;37.496;2023-04-28T02:16:47;97137.91;;;12.58;100.00
69848;BME280;57143;55.940;37.496;2023-04-28T02:19:14;97122.34;;;12.64;100.00
69848;BME280;57143;55.940;37.496;2023-04-28T02:21:41;97142.94;;;12.89;100.00
69848;BME280;57143;55.940;37.496;2023-04-28T02:24:09;97149.66;;;12.91;100.00
69848;BME280;57143;55.940;37.496;2023-04-28T02:26:36;97164.03;;;13.15;100.00
69848;BME280;57143;55.940;37.496;2023-04-28T02:29:03;97184.81;;;13.43;100.00
69848;BME280;57143;55.940;37.496;2023-04-28T02:31:30;97199.09;;;13.67;100.00
69848;BME280;57143;55.940;37.496;2023-04-28T02:33:59;97214.94;;;13.79;100.00
69848;BME280;57143;55.940;37.496;2023-04-28T02:36:26;97256.47;;;13.71;100.00
69848;BME280;57143;55.940;37.496;2023-04-28T02:38:53;97273.25;;;13.78;100.00
69848;BME280;57143;55.940;37.496;2023-04-28T02:41:20;97277.47;;;13.52;100.00
69848;BME280;57143;55.940;37.496;2023-04-28T02:43:47;97283.06;;;13.42;100.00
69848;BME280;57143;55.940;37.496;2023-04-28T02:46:14;97285.56;;;13.20;100.00
69848;BME280;57143;55.940;37.496;2023-04-28T02:48:42;97281.94;;;13.06;100.00
69848;BME280;57143;55.940;37.496;2023-04-28T02:51:10;97276.59;;;12.96;100.00
69848;BME280;57143;55.940;37.496;2023-04-28T02:53:38;97270.88;;;12.97;100.00
69848;BME280;57143;55.940;37.496;2023-04-28T02:56:06;97258.41;;;12.91;100.00
69848;BME280;57143;55.940;37.496;2023-04-28T02:58:33;97247.38;;;12.82;100.00
69848;BME280;57143;55.940;37.496;2023-04-28T03:01:00;97245.78;;;12.82;100.00
69848;BME280;57143;55.940;37.496;2023-04-28T03:03:27;97255.84;;;12.81;100.00
69848;BME280;57143;55.940;37.496;2023-04-28T03:05:55;97246.94;;;12.75;100.00
69848;BME280;57143;55.940;37.496;2023-04-28T03:08:24;97241.78;;;12.74;100.00
69848;BME280;57143;55.940;37.496;2023-04-28T03:10:51;97242.31;;;12.76;100.00
69848;BME280;57143;55.940;37.496;2023-04-28T03:13:18;97231.44;;;12.76;100.00
69848;BME280;57143;55.940;37.496;2023-04-28T03:15:45;97228.19;;;12.74;100.00
69848;BME280;57143;55.940;37.496;2023-04-28T03:18:12;97213.28;;;12.71;100.00
69848;BME280;57143;55.940;37.496;2023-04-28T03:20:40;97233.28;;;12.80;100.00
69848;BME280;57143;55.940;37.496;2023-04-28T03:23:07;97234.91;;;12.82;100.00
69848;BME280;57143;55.940;37.496;2023-04-28T03:25:35;97230.78;;;12.84;100.00
69848;BME280;57143;55.940;37.496;2023-04-28T03:28:03;97223.44;;;12.85;100.00
69848;BME280;57143;55.940;37.496;2023-04-28T03:30:30;97212.03;;;12.82;100.00
69848;BME280;57143;55.940;37.496;2023-04-28T03:32:57;97222.28;;;12.91;100.00
69848;BME280;57143;55.940;37.496;2023-04-28T03:35:25;97217.13;;;12.89;100.00
69848;BME280;57143;55.940;37.496;2023-04-28T03:37:52;97227.06;;;12.99;100.00
69848;BME280;57143;55.940;37.496;2023-04-28T03:40:19;97228.66;;;13.00;100.00
69848;BME280;57143;55.940;37.496;2023-04-28T03:42:47;97220.81;;;12.98;100.00
69848;BME280;57143;55.940;37.496;2023-04-28T03:45:15;97207.50;;;12.97;100.00
69848;BME280;57143;55.940;37.496;2023-04-28T03:47:42;97230.78;;;13.08;100.00
69848;BME280;57143;55.940;37.496;2023-04-28T03:50:09;97228.78;;;13.13;100.00
69848;BME280;57143;55.940;37.496;2023-04-28T03:52:36;97216.00;;;13.14;100.00
69848;BME280;57143;55.940;37.496;2023-04-28T03:55:04;97231.44;;;13.18;100.00
69848;BME280;57143;55.940;37.496;2023-04-28T03:57:31;97242.88;;;13.15;100.00
69848;BME280;57143;55.940;37.496;2023-04-28T04:00:00;97239.97;;;13.30;100.00
69848;BME280;57143;55.940;37.496;2023-04-28T04:02:31;97243.91;;;13.38;100.00
69848;BME280;57143;55.940;37.496;2023-04-28T04:05:00;97238.19;;;13.39;100.00
69848;BME280;57143;55.940;37.496;2023-04-28T04:07:35;97249.34;;;13.56;100.00
69848;BME280;57143;55.940;37.496;2023-04-28T04:10:02;97240.00;;;13.62;100.00
69848;BME280;57143;55.940;37.496;2023-04-28T04:12:30;97247.63;;;13.79;100.00
69848;BME280;57143;55.940;37.496;2023-04-28T04:14:57;97248.81;;;14.05;100.00
69848;BME280;57143;55.940;37.496;2023-04-28T04:17:25;97255.16;;;14.01;100.00
69848;BME280;57143;55.940;37.496;2023-04-28T04:19:53;97280.88;;;14.08;100.00
69848;BME280;57143;55.940;37.496;2023-04-28T04:22:20;97287.16;;;14.09;100.00
69848;BME280;57143;55.940;37.496;2023-04-28T04:24:47;97291.84;;;14.22;100.00
69848;BME280;57143;55.940;37.496;2023-04-28T04:27:14;97294.41;;;14.32;100.00
69848;BME280;57143;55.940;37.496;2023-04-28T04:29:41;97300.22;;;14.57;100.00
69848;BME280;57143;55.940;37.496;2023-04-28T04:32:08;97322.03;;;14.71;100.00
69848;BME280;57143;55.940;37.496;2023-04-28T04:34:37;97342.66;;;14.77;100.00
69848;BME280;57143;55.940;37.496;2023-04-28T04:37:04;97372.88;;;14.94;100.00
69848;BME280;57143;55.940;37.496;2023-04-28T04:39:31;97398.41;;;14.98;100.00
69848;BME280;57143;55.940;37.496;2023-04-28T04:41:59;97405.81;;;14.97;100.00
69848;BME280;57143;55.940;37.496;2023-04-28T04:44:26;97418.53;;;15.02;100.00
69848;BME280;57143;55.940;37.496;2023-04-28T04:46:53;97430.06;;;14.99;100.00
69848;BME280;57143;55.940;37.496;2023-04-28T04:49:20;97433.78;;;15.03;100.00
69848;BME280;57143;55.940;37.496;2023-04-28T04:51:49;97433.53;;;15.18;100.00
69848;BME280;57143;55.940;37.496;2023-04-28T04:54:16;97431.00;;;15.22;100.00
69848;BME280;57143;55.940;37.496;2023-04-28T04:56:43;97440.28;;;15.34;100.00
69848;BME280;57143;55.940;37.496;2023-04-28T04:59:10;97457.56;;;15.30;100.00
69848;BME280;57143;55.940;37.496;2023-04-28T05:01:38;97468.28;;;15.13;100.00
69848;BME280;57143;55.940;37.496;2023-04-28T05:04:05;97466.16;;;15.23;100.00
69848;BME280;57143;55.940;37.496;2023-04-28T05:06:32;97459.88;;;15.09;100.00
69848;BME280;57143;55.940;37.496;2023-04-28T05:09:01;97470.34;;;14.88;100.00
69848;BME280;57143;55.940;37.496;2023-04-28T05:11:28;97453.97;;;14.88;100.00
69848;BME280;57143;55.940;37.496;2023-04-28T05:13:55;97448.09;;;14.81;100.00
69848;BME280;57143;55.940;37.496;2023-04-28T05:16:23;97435.53;;;14.67;100.00
69848;BME280;57143;55.940;37.496;2023-04-28T05:18:50;97414.72;;;14.57;100.00
69848;BME280;57143;55.940;37.496;2023-04-28T05:21:17;97396.41;;;14.44;100.00
69848;BME280;57143;55.940;37.496;2023-04-28T05:23:44;97393.91;;;14.48;100.00
69848;BME280;57143;55.940;37.496;2023-04-28T05:26:13;97379.88;;;14.54;100.00
69848;BME280;57143;55.940;37.496;2023-04-28T05:28:41;97366.47;;;14.71;100.00
69848;BME280;57143;55.940;37.496;2023-04-28T05:31:08;97370.34;;;14.84;100.00
69848;BME280;57143;55.940;37.496;2023-04-28T05:33:36;97385.88;;;14.83;100.00
69848;BME280;57143;55.940;37.496;2023-04-28T05:36:03;97402.56;;;14.82;100.00
69848;BME280;57143;55.940;37.496;2023-04-28T05:38:30;97416.53;;;14.62;100.00
69848;BME280;57143;55.940;37.496;2023-04-28T05:40:58;97427.66;;;14.65;100.00
69848;BME280;57143;55.940;37.496;2023-04-28T05:43:27;97419.75;;;14.64;100.00
69848;BME280;57143;55.940;37.496;2023-04-28T05:45:54;97417.94;;;14.59;100.00
69848;BME280;57143;55.940;37.496;2023-04-28T05:48:21;97409.34;;;14.52;100.00
69848;BME280;57143;55.940;37.496;2023-04-28T05:50:49;97401.84;;;14.44;100.00
69848;BME280;57143;55.940;37.496;2023-04-28T05:53:16;97383.00;;;14.29;100.00
69848;BME280;57143;55.940;37.496;2023-04-28T05:55:43;97312.09;;;14.16;100.00
69848;BME280;57143;55.940;37.496;2023-04-28T05:58:10;97313.59;;;14.27;100.00
69848;BME280;57143;55.940;37.496;2023-04-28T06:00:39;97301.72;;;14.18;100.00
69848;BME280;57143;55.940;37.496;2023-04-28T06:03:06;97254.97;;;14.11;100.00
69848;BME280;57143;55.940;37.496;2023-04-28T06:05:35;97249.34;;;14.21;100.00
69848;BME280;57143;55.940;37.496;2023-04-28T06:08:03;97247.75;;;14.20;100.00
69848;BME280;57143;55.940;37.496;2023-04-28T06:10:30;97242.28;;;14.06;100.00
69848;BME280;57143;55.940;37.496;2023-04-28T06:12:57;97238.31;;;13.99;100.00
69848;BME280;57143;55.940;37.496;2023-04-28T06:15:24;97243.25;;;13.97;100.00
69848;BME280;57143;55.940;37.496;2023-04-28T06:17:53;97213.06;;;13.93;100.00
69848;BME280;57143;55.940;37.496;2023-04-28T06:20:21;97189.78;;;14.01;100.00
69848;BME280;57143;55.940;37.496;2023-04-28T06:22:48;97178.06;;;13.86;100.00
69848;BME280;57143;55.940;37.496;2023-04-28T06:25:16;97171.50;;;13.87;100.00
69848;BME280;57143;55.940;37.496;2023-04-28T06:27:43;97164.97;;;13.88;100.00
69848;BME280;57143;55.940;37.496;2023-04-28T06:30:16;97135.63;;;13.85;100.00
69848;BME280;57143;55.940;37.496;2023-04-28T06:32:43;97123.91;;;13.99;100.00
69848;BME280;57143;55.940;37.496;2023-04-28T06:35:12;97109.59;;;14.07;100.00
69848;BME280;57143;55.940;37.496;2023-04-28T06:37:39;97095.59;;;14.13;100.00
69848;BME280;57143;55.940;37.496;2023-04-28T06:40:08;97091.44;;;14.29;100.00
69848;BME280;57143;55.940;37.496;2023-04-28T06:42:35;97073.94;;;14.57;100.00
69848;BME280;57143;55.940;37.496;2023-04-28T06:45:03;97042.50;;;14.95;100.00
69848;BME280;57143;55.940;37.496;2023-04-28T06:47:31;97062.09;;;15.42;100.00
69848;BME280;57143;55.940;37.496;2023-04-28T06:49:58;97078.84;;;15.79;100.00
69848;BME280;57143;55.940;37.496;2023-04-28T06:52:27;97135.50;;;15.96;100.00
69848;BME280;57143;55.940;37.496;2023-04-28T06:54:55;97162.31;;;16.33;100.00
69848;BME280;57143;55.940;37.496;2023-04-28T06:57:22;97226.88;;;16.43;100.00
69848;BME280;57143;55.940;37.496;2023-04-28T06:59:49;97260.53;;;16.52;100.00
69848;BME280;57143;55.940;37.496;2023-04-28T07:02:17;97277.81;;;16.39;100.00
69848;BME280;57143;55.940;37.496;2023-04-28T07:04:44;97281.28;;;16.22;100.00
69848;BME280;57143;55.940;37.496;2023-04-28T07:07:11;97272.00;;;16.32;100.00
69848;BME280;57143;55.940;37.496;2023-04-28T07:09:40;97276.19;;;16.38;100.00
69848;BME280;57143;55.940;37.496;2023-04-28T07:12:07;97264.91;;;16.53;100.00
69848;BME280;57143;55.940;37.496;2023-04-28T07:14:34;97278.00;;;16.42;100.00
69848;BME280;57143;55.940;37.496;2023-04-28T07:17:02;97280.50;;;16.52;100.00
69848;BME280;57143;55.940;37.496;2023-04-28T07:19:29;97283.16;;;16.74;100.00
69848;BME280;57143;55.940;37.496;2023-04-28T07:21:56;97293.06;;;16.92;100.00
69848;BME280;57143;55.940;37.496;2023-04-28T07:24:23;97313.72;;;17.07;100.00
69848;BME280;57143;55.940;37.496;2023-04-28T07:26:53;97332.66;;;17.34;100.00
69848;BME280;57143;55.940;37.496;2023-04-28T07:29:20;97342.59;;;17.21;100.00
69848;BME280;57143;55.940;37.496;2023-04-28T07:31:47;97356.50;;;16.94;100.00
69848;BME280;57143;55.940;37.496;2023-04-28T07:34:15;97354.66;;;16.81;100.00
69848;BME280;57143;55.940;37.496;2023-04-28T07:36:42;97330.63;;;16.70;100.00
69848;BME280;57143;55.940;37.496;2023-04-28T07:39:09;97360.16;;;16.59;100.00
69848;BME280;57143;55.940;37.496;2023-04-28T07:41:36;97347.84;;;16.26;100.00
69848;BME280;57143;55.940;37.496;2023-04-28T07:44:05;97337.34;;;16.19;100.00
69848;BME280;57143;55.940;37.496;2023-04-28T07:46:35;97341.94;;;16.33;100.00
69848;BME280;57143;55.940;37.496;2023-04-28T07:49:02;97322.28;;;16.22;100.00
69848;BME280;57143;55.940;37.496;2023-04-28T07:51:30;97328.84;;;16.21;100.00
69848;BME280;57143;55.940;37.496;2023-04-28T07:53:57;97311.50;;;16.03;100.00
69848;BME280;57143;55.940;37.496;2023-04-28T07:56:24;97305.25;;;16.03;100.00
69848;BME280;57143;55.940;37.496;2023-04-28T07:58:52;97302.53;;;16.03;100.00
69848;BME280;57143;55.940;37.496;2023-04-28T08:01:20;97299.88;;;15.98;100.00
69848;BME280;57143;55.940;37.496;2023-04-28T08:03:48;97297.53;;;16.05;100.00
69848;BME280;57143;55.940;37.496;2023-04-28T08:06:15;97301.78;;;15.89;100.00
69848;BME280;57143;55.940;37.496;2023-04-28T08:08:42;97303.31;;;15.81;100.00
69848;BME280;57143;55.940;37.496;2023-04-28T08:11:09;97278.22;;;15.79;100.00
69848;BME280;57143;55.940;37.496;2023-04-28T08:13:36;97276.38;;;15.88;100.00
69848;BME280;57143;55.940;37.496;2023-04-28T08:16:04;97265.81;;;15.95;100.00
69848;BME280;57143;55.940;37.496;2023-04-28T08:18:33;97255.16;;;15.85;100.00
69848;BME280;57143;55.940;37.496;2023-04-28T08:21:01;97263.97;;;15.82;100.00
69848;BME280;57143;55.940;37.496;2023-04-28T08:23:28;97256.69;;;15.78;100.00
69848;BME280;57143;55.940;37.496;2023-04-28T08:25:56;97249.44;;;15.73;100.00
69848;BME280;57143;55.940;37.496;2023-04-28T08:28:23;97248.72;;;15.46;100.00
69848;BME280;57143;55.940;37.496;2023-04-28T08:30:51;97217.06;;;15.45;100.00
69848;BME280;57143;55.940;37.496;2023-04-28T08:33:20;97201.00;;;15.43;100.00
69848;BME280;57143;55.940;37.496;2023-04-28T08:35:50;97175.25;;;15.36;100.00
69848;BME280;57143;55.940;37.496;2023-04-28T08:38:17;97138.03;;;15.40;100.00
69848;BME280;57143;55.940;37.496;2023-04-28T08:40:47;97141.56;;;15.40;100.00
69848;BME280;57143;55.940;37.496;2023-04-28T08:43:14;97138.31;;;15.38;100.00
69848;BME280;57143;55.940;37.496;2023-04-28T08:45:42;97132.16;;;15.33;100.00
69848;BME280;57143;55.940;37.496;2023-04-28T08:48:16;97113.69;;;15.30;100.00
69848;BME280;57143;55.940;37.496;2023-04-28T08:50:51;97114.63;;;15.25;100.00
69848;BME280;57143;55.940;37.496;2023-04-28T08:53:23;97097.38;;;15.16;100.00
69848;BME280;57143;55.940;37.496;2023-04-28T08:55:53;97072.44;;;15.09;100.00
69848;BME280;57143;55.940;37.496;2023-04-28T08:58:22;97033.31;;;14.91;100.00
69848;BME280;57143;55.940;37.496;2023-04-28T09:00:50;96974.72;;;14.80;100.00
69848;BME280;57143;55.940;37.496;2023-04-28T09:03:17;96974.00;;;14.97;100.00
69848;BME280;57143;55.940;37.496;2023-04-28T09:05:45;96942.09;;;14.97;100.00
69848;BME280;57143;55.940;37.496;2023-04-28T09:08:13;96896.41;;;14.81;100.00
69848;BME280;57143;55.940;37.496;2023-04-28T09:10:41;96875.56;;;14.76;100.00
69848;BME280;57143;55.940;37.496;2023-04-28T09:13:08;96823.75;;;14.76;100.00
69848;BME280;57143;55.940;37.496;2023-04-28T09:15:36;96804.16;;;14.74;100.00
69848;BME280;57143;55.940;37.496;2023-04-28T09:18:06;96740.25;;;14.58;100.00
69848;BME280;57143;55.940;37.496;2023-04-28T09:20:35;96729.91;;;14.77;100.00
69848;BME280;57143;55.940;37.496;2023-04-28T09:23:15;96693.94;;;14.58;100.00
69848;BME280;57143;55.940;37.496;2023-04-28T09:25:55;96672.78;;;14.64;100.00
69848;BME280;57143;55.940;37.496;2023-04-28T09:28:23;96645.69;;;14.59;100.00
69848;BME280;57143;55.940;37.496;2023-04-28T09:30:50;96584.09;;;14.49;100.00
69848;BME280;57143;55.940;37.496;2023-04-28T09:33:17;96585.88;;;14.71;100.00
69848;BME280;57143;55.940;37.496;2023-04-28T09:35:46;96590.06;;;14.77;100.00
69848;BME280;57143;55.940;37.496;2023-04-28T09:38:15;96565.06;;;14.83;100.00
69848;BME280;57143;55.940;37.496;2023-04-28T09:40:54;96541.47;;;14.87;100.00
69848;BME280;57143;55.940;37.496;2023-04-28T09:43:26;96532.31;;;14.92;100.00
69848;BME280;57143;55.940;37.496;2023-04-28T09:45:54;96535.38;;;14.90;100.00
69848;BME280;57143;55.940;37.496;2023-04-28T09:48:30;96527.00;;;15.04;100.00
69848;BME280;57143;55.940;37.496;2023-04-28T09:50:58;96500.00;;;15.28;100.00
69848;BME280;57143;55.940;37.496;2023-04-28T09:53:27;96496.66;;;15.23;100.00
69848;BME280;57143;55.940;37.496;2023-04-28T09:55:56;96525.06;;;15.22;100.00
69848;BME280;57143;55.940;37.496;2023-04-28T09:58:24;96544.50;;;15.20;100.00
69848;BME280;57143;55.940;37.496;2023-04-28T10:00:53;96562.13;;;15.23;100.00
69848;BME280;57143;55.940;37.496;2023-04-28T10:03:21;96582.34;;;15.30;100.00
69848;BME280;57143;55.940;37.496;2023-04-28T10:05:50;96593.75;;;15.32;100.00
69848;BME280;57143;55.940;37.496;2023-04-28T10:08:21;96613.00;;;15.36;100.00
69848;BME280;57143;55.940;37.496;2023-04-28T10:10:51;96623.94;;;15.36;100.00
69848;BME280;57143;55.940;37.496;2023-04-28T10:13:20;96637.72;;;15.39;100.00
69848;BME280;57143;55.940;37.496;2023-04-28T10:15:48;96652.19;;;15.40;100.00
69848;BME280;57143;55.940;37.496;2023-04-28T10:18:16;96673.34;;;15.34;100.00
69848;BME280;57143;55.940;37.496;2023-04-28T10:20:57;96683.31;;;15.39;100.00
69848;BME280;57143;55.940;37.496;2023-04-28T10:23:45;96719.44;;;15.36;100.00
69848;BME280;57143;55.940;37.496;2023-04-28T10:26:17;96732.16;;;15.40;100.00
69848;BME280;57143;55.940;37.496;2023-04-28T10:28:47;96736.28;;;15.38;100.00
69848;BME280;57143;55.940;37.496;2023-04-28T10:31:16;96734.50;;;15.16;100.00
69848;BME280;57143;55.940;37.496;2023-04-28T10:33:45;96772.34;;;15.09;100.00
69848;BME280;57143;55.940;37.496;2023-04-28T10:36:46;96757.69;;;14.88;100.00
69848;BME280;57143;55.940;37.496;2023-04-28T10:39:13;96721.69;;;14.60;100.00
69848;BME280;57143;55.940;37.496;2023-04-28T10:41:44;96661.66;;;14.43;100.00
69848;BME280;57143;55.940;37.496;2023-04-28T10:44:43;96598.41;;;14.16;100.00
69848;BME280;57143;55.940;37.496;2023-04-28T10:47:10;96493.97;;;14.20;100.00
69848;BME280;57143;55.940;37.496;2023-04-28T10:50:08;96407.75;;;14.24;100.00
69848;BME280;57143;55.940;37.496;2023-04-28T10:52:48;96325.72;;;14.26;100.00
69848;BME280;57143;55.940;37.496;2023-04-28T10:55:28;96278.91;;;14.15;100.00
69848;BME280;57143;55.940;37.496;2023-04-28T10:58:33;96203.44;;;14.33;100.00
69848;BME280;57143;55.940;37.496;2023-04-28T11:01:24;96136.75;;;14.39;100.00
69848;BME280;57143;55.940;37.496;2023-04-28T11:03:52;96112.84;;;14.44;100.00
69848;BME280;57143;55.940;37.496;2023-04-28T11:06:26;96077.16;;;14.37;100.00
69848;BME280;57143;55.940;37.496;2023-04-28T11:08:56;96085.13;;;14.42;100.00
69848;BME280;57143;55.940;37.496;2023-04-28T11:11:25;96055.78;;;14.48;100.00
69848;BME280;57143;55.940;37.496;2023-04-28T11:16:50;96028.69;;;14.63;100.00
69848;BME280;57143;55.940;37.496;2023-04-28T11:19:19;96010.69;;;14.71;100.00
69848;BME280;57143;55.940;37.496;2023-04-28T11:21:48;95998.69;;;14.72;100.00
69848;BME280;57143;55.940;37.496;2023-04-28T11:24:15;96023.25;;;14.63;100.00
69848;BME280;57143;55.940;37.496;2023-04-28T11:26:43;96019.81;;;14.54;100.00
69848;BME280;57143;55.940;37.496;2023-04-28T11:29:12;95995.34;;;14.46;100.00
69848;BME280;57143;55.940;37.496;2023-04-28T11:31:40;95977.31;;;14.53;100.00
69848;BME280;57143;55.940;37.496;2023-04-28T11:34:18;95970.63;;;14.51;100.00
69848;BME280;57143;55.940;37.496;2023-04-28T11:36:46;95968.50;;;14.56;100.00
69848;BME280;57143;55.940;37.496;2023-04-28T11:39:13;95958.38;;;14.57;100.00
69848;BME280;57143;55.940;37.496;2023-04-28T11:41:42;95935.84;;;14.68;100.00
69848;BME280;57143;55.940;37.496;2023-04-28T11:44:12;95911.91;;;14.86;100.00
69848;BME280;57143;55.940;37.496;2023-04-28T11:46:47;95918.53;;;14.85;100.00
69848;BME280;57143;55.940;37.496;2023-04-28T11:49:16;95922.91;;;14.77;100.00
69848;BME280;57143;55.940;37.496;2023-04-28T11:51:44;95907.16;;;14.83;100.00
69848;BME280;57143;55.940;37.496;2023-04-28T11:54:19;95912.22;;;14.72;100.00
69848;BME280;57143;55.940;37.496;2023-04-28T11:56:47;95921.59;;;14.83;100.00
69848;BME280;57143;55.940;37.496;2023-04-28T11:59:16;95930.31;;;14.77;100.00
69848;BME280;57143;55.940;37.496;2023-04-28T12:01:48;95954.13;;;14.68;100.00
69848;BME280;57143;55.940;37.496;2023-04-28T12:04:26;95957.91;;;14.55;100.00
69848;BME280;57143;55.940;37.496;2023-04-28T12:07:02;95964.38;;;14.50;100.00
69848;BME280;57143;55.940;37.496;2023-04-28T12:09:33;95958.66;;;14.43;100.00
69848;BME280;57143;55.940;37.496;2023-04-28T12:12:01;95955.59;;;14.45;100.00
69848;BME280;57143;55.940;37.496;2023-04-28T12:14:31;95935.50;;;14.37;100.00
69848;BME280;57143;55.940;37.496;2023-04-28T12:17:00;95936.13;;;14.55;100.00
69848;BME280;57143;55.940;37.496;2023-04-28T12:19:27;95958.78;;;14.47;100.00
69848;BME280;57143;55.940;37.496;2023-04-28T12:22:02;95944.16;;;14.51;100.00
69848;BME280;57143;55.940;37.496;2023-04-28T12:24:30;95924.50;;;14.66;100.00
69848;BME280;57143;55.940;37.496;2023-04-28T12:27:16;95914.50;;;14.70;100.00
69848;BME280;57143;55.940;37.496;2023-04-28T12:29:47;95949.09;;;14.58;100.00
69848;BME280;57143;55.940;37.496;2023-04-28T12:32:15;95972.22;;;14.52;100.00
69848;BME280;57143;55.940;37.496;2023-04-28T12:34:44;96023.56;;;14.41;100.00
69848;BME280;57143;55.940;37.496;2023-04-28T12:37:12;96025.81;;;14.48;100.00
69848;BME280;57143;55.940;37.496;2023-04-28T12:39:40;96027.09;;;14.13;100.00
69848;BME280;57143;55.940;37.496;2023-04-28T12:42:07;96079.50;;;14.10;100.00
69848;BME280;57143;55.940;37.496;2023-04-28T12:44:35;96100.72;;;13.96;100.00
69848;BME280;57143;55.940;37.496;2023-04-28T12:47:06;96133.75;;;13.85;100.00
69848;BME280;57143;55.940;37.496;2023-04-28T12:49:34;96148.94;;;13.86;100.00
69848;BME280;57143;55.940;37.496;2023-04-28T12:52:01;96204.53;;;13.77;100.00